createdAt,value
2017-06-03T00:00:03.041Z,931.04
2017-06-03T00:00:22.420Z,931.05
2017-06-03T00:00:42.374Z,931.05
2017-06-03T00:01:02.333Z,931.07
2017-06-03T00:01:22.297Z,931.04
2017-06-03T00:01:42.260Z,931.13
2017-06-03T00:02:02.201Z,931.08
2017-06-03T00:02:22.146Z,931.1
2017-06-03T00:02:42.120Z,931.09
2017-06-03T00:03:01.521Z,931.04
2017-06-03T00:03:21.481Z,931.06
2017-06-03T00:03:41.449Z,931.06
2017-06-03T00:04:01.392Z,931.09
2017-06-03T00:04:20.797Z,931.12
2017-06-03T00:04:40.722Z,931.05
2017-06-03T00:05:00.693Z,931.09
2017-06-03T00:05:20.088Z,931.07
2017-06-03T00:05:40.083Z,931.07
2017-06-03T00:05:59.461Z,931.09
2017-06-03T00:06:19.418Z,931.09
2017-06-03T00:06:39.394Z,931.09
2017-06-03T00:06:59.385Z,931.12
2017-06-03T00:07:19.349Z,931.09
2017-06-03T00:07:39.433Z,931.09
2017-06-03T00:07:59.380Z,931.09
2017-06-03T00:08:19.396Z,931.11
2017-06-03T00:08:44.056Z,931.13
2017-06-03T00:09:08.708Z,931.14
2017-06-03T00:09:34.174Z,931.11
2017-06-03T00:10:05.440Z,931.1
2017-06-03T00:10:27.746Z,931.1
2017-06-03T00:10:48.436Z,931.09
2017-06-03T00:11:09.410Z,931.08
2017-06-03T00:11:28.691Z,931.09
2017-06-03T00:11:48.398Z,931.11
2017-06-03T00:12:08.719Z,931.1
2017-06-03T00:12:28.771Z,931.1
2017-06-03T00:12:48.751Z,931.12
2017-06-03T00:13:08.193Z,931.1
2017-06-03T00:13:28.178Z,931.1
2017-06-03T00:13:48.144Z,931.12
2017-06-03T00:14:08.129Z,931.1
2017-06-03T00:14:28.147Z,931.11
2017-06-03T00:14:48.147Z,931.11
2017-06-03T00:15:07.561Z,931.08
2017-06-03T00:15:27.503Z,931.09
2017-06-03T00:15:47.434Z,931.1
2017-06-03T00:16:06.841Z,931.08
2017-06-03T00:16:26.273Z,931.1
2017-06-03T00:16:46.202Z,931.1
2017-06-03T00:17:06.141Z,931.09
2017-06-03T00:17:26.101Z,931.07
2017-06-03T00:17:45.502Z,931.07
2017-06-03T00:18:05.491Z,931.1
2017-06-03T00:18:25.432Z,931.11
2017-06-03T00:18:44.854Z,931.11
2017-06-03T00:19:04.853Z,931.13
2017-06-03T00:19:24.813Z,931.09
2017-06-03T00:19:44.770Z,931.12
2017-06-03T00:20:04.804Z,931.11
2017-06-03T00:20:24.736Z,931.11
2017-06-03T00:20:43.557Z,931.11
2017-06-03T00:21:03.500Z,931.09
2017-06-03T00:21:22.888Z,931.09
2017-06-03T00:21:42.303Z,931.13
2017-06-03T00:22:01.926Z,931.12
2017-06-03T00:22:21.334Z,931.08
2017-06-03T00:22:41.320Z,931.11
2017-06-03T00:23:01.254Z,931.09
2017-06-03T00:23:20.142Z,931.12
2017-06-03T00:23:40.086Z,931.14
2017-06-03T00:24:00.092Z,931.12
2017-06-03T00:24:19.508Z,931.12
2017-06-03T00:24:39.462Z,931.13
2017-06-03T00:24:59.449Z,931.15
2017-06-03T00:25:18.853Z,931.16
2017-06-03T00:25:38.275Z,931.15
2017-06-03T00:25:58.250Z,931.17
2017-06-03T00:26:18.229Z,931.14
2017-06-03T00:26:38.183Z,931.19
2017-06-03T00:26:58.125Z,931.17
2017-06-03T00:27:18.107Z,931.17
2017-06-03T00:27:36.966Z,931.18
2017-06-03T00:27:56.939Z,931.18
2017-06-03T00:28:16.915Z,931.21
2017-06-03T00:28:36.881Z,931.2
2017-06-03T00:28:56.861Z,931.24
2017-06-03T00:29:16.820Z,931.18
2017-06-03T00:29:36.792Z,931.19
2017-06-03T00:29:56.271Z,931.22
2017-06-03T00:30:16.265Z,931.19
2017-06-03T00:30:35.641Z,931.23
2017-06-03T00:30:55.567Z,931.2
2017-06-03T00:31:15.551Z,931.23
2017-06-03T00:31:35.491Z,931.19
2017-06-03T00:31:55.463Z,931.2
2017-06-03T00:32:15.435Z,931.19
2017-06-03T00:32:34.861Z,931.22
2017-06-03T00:32:54.833Z,931.2
2017-06-03T00:33:14.808Z,931.18
2017-06-03T00:33:34.777Z,931.19
2017-06-03T00:33:54.759Z,931.23
2017-06-03T00:34:14.713Z,931.21
2017-06-03T00:34:34.652Z,931.18
2017-06-03T00:34:54.625Z,931.19
2017-06-03T00:35:14.608Z,931.2
2017-06-03T00:35:34.008Z,931.18
2017-06-03T00:35:53.951Z,931.22
2017-06-03T00:36:13.920Z,931.19
2017-06-03T00:36:33.938Z,931.17
2017-06-03T00:36:53.378Z,931.19
2017-06-03T00:37:13.347Z,931.17
2017-06-03T00:37:33.353Z,931.21
2017-06-03T00:37:53.319Z,931.19
2017-06-03T00:38:13.285Z,931.17
2017-06-03T00:38:33.273Z,931.19
2017-06-03T00:38:52.741Z,931.15
2017-06-03T00:39:12.705Z,931.19
2017-06-03T00:39:32.682Z,931.19
2017-06-03T00:39:52.049Z,931.2
2017-06-03T00:40:11.993Z,931.2
2017-06-03T00:40:31.395Z,931.2
2017-06-03T00:40:50.827Z,931.2
2017-06-03T00:41:10.803Z,931.23
2017-06-03T00:41:30.755Z,931.2
2017-06-03T00:41:50.882Z,931.18
2017-06-03T00:42:10.831Z,931.22
2017-06-03T00:42:30.826Z,931.23
2017-06-03T00:42:50.804Z,931.22
2017-06-03T00:43:10.745Z,931.23
2017-06-03T00:43:30.176Z,931.2
2017-06-03T00:43:50.177Z,931.25
2017-06-03T00:44:10.142Z,931.26
2017-06-03T00:44:30.097Z,931.24
2017-06-03T00:44:50.044Z,931.25
2017-06-03T00:45:10.026Z,931.21
2017-06-03T00:45:29.399Z,931.19
2017-06-03T00:45:49.364Z,931.24
2017-06-03T00:46:09.337Z,931.22
2017-06-03T00:46:28.149Z,931.27
2017-06-03T00:46:47.569Z,931.25
2017-06-03T00:47:07.584Z,931.25
2017-06-03T00:47:27.026Z,931.23
2017-06-03T00:47:46.996Z,931.29
2017-06-03T00:48:06.959Z,931.26
2017-06-03T00:48:26.343Z,931.28
2017-06-03T00:48:45.751Z,931.23
2017-06-03T00:49:05.729Z,931.22
2017-06-03T00:49:25.719Z,931.26
2017-06-03T00:49:45.705Z,931.22
2017-06-03T00:50:05.138Z,931.2
2017-06-03T00:50:25.122Z,931.22
2017-06-03T00:50:45.149Z,931.23
2017-06-03T00:51:05.148Z,931.21
2017-06-03T00:51:25.088Z,931.25
2017-06-03T00:51:44.516Z,931.25
2017-06-03T00:52:03.960Z,931.24
2017-06-03T00:52:23.972Z,931.27
2017-06-03T00:52:43.433Z,931.24
2017-06-03T00:53:02.836Z,931.21
2017-06-03T00:53:22.794Z,931.2
2017-06-03T00:53:42.748Z,931.19
2017-06-03T00:54:02.711Z,931.27
2017-06-03T00:54:22.678Z,931.26
2017-06-03T00:54:42.640Z,931.25
2017-06-03T00:55:02.587Z,931.25
2017-06-03T00:55:22.554Z,931.24
2017-06-03T00:55:42.551Z,931.26
2017-06-03T00:56:02.547Z,931.27
2017-06-03T00:56:22.520Z,931.3
2017-06-03T00:56:42.502Z,931.27
2017-06-03T00:57:02.428Z,931.29
2017-06-03T00:57:22.426Z,931.24
2017-06-03T00:57:41.834Z,931.28
2017-06-03T00:58:01.814Z,931.24
2017-06-03T00:58:21.802Z,931.28
2017-06-03T00:58:41.755Z,931.28
2017-06-03T00:59:01.156Z,931.28
2017-06-03T00:59:21.119Z,931.3
2017-06-03T00:59:40.495Z,931.31
2017-06-03T00:59:59.902Z,931.33
2017-06-03T01:00:19.868Z,931.3
2017-06-03T01:00:39.842Z,931.29
2017-06-03T01:00:59.802Z,931.36
2017-06-03T01:01:19.764Z,931.32
2017-06-03T01:01:39.748Z,931.33
2017-06-03T01:01:59.989Z,931.3
2017-06-03T01:02:18.853Z,931.3
2017-06-03T01:02:38.845Z,931.36
2017-06-03T01:02:58.775Z,931.29
2017-06-03T01:03:17.599Z,931.32
2017-06-03T01:03:37.591Z,931.29
2017-06-03T01:03:57.531Z,931.31
2017-06-03T01:04:16.928Z,931.33
2017-06-03T01:04:36.348Z,931.31
2017-06-03T01:04:56.332Z,931.3
2017-06-03T01:05:15.141Z,931.33
2017-06-03T01:05:35.117Z,931.37
2017-06-03T01:05:54.533Z,931.31
2017-06-03T01:06:13.364Z,931.34
2017-06-03T01:06:33.352Z,931.36
2017-06-03T01:06:53.299Z,931.31
2017-06-03T01:07:12.161Z,931.35
2017-06-03T01:07:32.147Z,931.31
2017-06-03T01:07:51.556Z,931.34
2017-06-03T01:08:11.496Z,931.33
2017-06-03T01:08:30.875Z,931.35
2017-06-03T01:08:50.269Z,931.34
2017-06-03T01:09:10.263Z,931.36
2017-06-03T01:09:30.227Z,931.33
2017-06-03T01:09:50.202Z,931.3
2017-06-03T01:10:09.585Z,931.31
2017-06-03T01:10:28.408Z,931.37
2017-06-03T01:10:48.404Z,931.33
2017-06-03T01:11:07.786Z,931.37
2017-06-03T01:11:27.761Z,931.36
2017-06-03T01:11:47.994Z,931.32
2017-06-03T01:12:07.921Z,931.35
2017-06-03T01:12:27.911Z,931.38
2017-06-03T01:12:47.831Z,931.38
2017-06-03T01:13:07.774Z,931.38
2017-06-03T01:13:27.738Z,931.37
2017-06-03T01:13:47.126Z,931.35
2017-06-03T01:14:07.159Z,931.38
2017-06-03T01:14:26.597Z,931.37
2017-06-03T01:14:45.989Z,931.41
2017-06-03T01:15:05.966Z,931.41
2017-06-03T01:15:25.359Z,931.4
2017-06-03T01:15:44.753Z,931.41
2017-06-03T01:16:04.104Z,931.42
2017-06-03T01:16:22.966Z,931.42
2017-06-03T01:16:42.931Z,931.41
2017-06-03T01:17:02.354Z,931.43
2017-06-03T01:17:21.749Z,931.38
2017-06-03T01:17:41.743Z,931.41
2017-06-03T01:18:01.157Z,931.44
2017-06-03T01:18:21.109Z,931.35
2017-06-03T01:18:41.059Z,931.38
2017-06-03T01:19:00.448Z,931.39
2017-06-03T01:19:19.842Z,931.38
2017-06-03T01:19:39.776Z,931.36
2017-06-03T01:19:59.141Z,931.41
2017-06-03T01:20:18.532Z,931.37
2017-06-03T01:20:38.545Z,931.4
2017-06-03T01:20:58.488Z,931.37
2017-06-03T01:21:18.457Z,931.38
2017-06-03T01:21:38.427Z,931.4
2017-06-03T01:21:58.440Z,931.38
2017-06-03T01:22:18.466Z,931.42
2017-06-03T01:22:38.403Z,931.42
2017-06-03T01:22:58.433Z,931.44
2017-06-03T01:23:18.435Z,931.44
2017-06-03T01:23:38.523Z,931.47
2017-06-03T01:23:58.582Z,931.43
2017-06-03T01:24:18.620Z,931.4
2017-06-03T01:24:38.616Z,931.42
2017-06-03T01:24:58.694Z,931.44
2017-06-03T01:25:18.225Z,931.43
2017-06-03T01:25:38.205Z,931.45
2017-06-03T01:25:58.169Z,931.43
2017-06-03T01:26:18.086Z,931.44
2017-06-03T01:26:38.091Z,931.42
2017-06-03T01:26:58.108Z,931.47
2017-06-03T01:27:18.132Z,931.44
2017-06-03T01:27:38.082Z,931.45
2017-06-03T01:27:58.066Z,931.45
2017-06-03T01:28:18.017Z,931.45
2017-06-03T01:28:37.449Z,931.46
2017-06-03T01:28:57.416Z,931.46
2017-06-03T01:29:17.406Z,931.47
2017-06-03T01:29:37.401Z,931.45
2017-06-03T01:29:57.370Z,931.46
2017-06-03T01:30:17.625Z,931.46
2017-06-03T01:30:40.372Z,931.48
2017-06-03T01:31:00.328Z,931.47
2017-06-03T01:31:20.270Z,931.5
2017-06-03T01:31:39.167Z,931.43
2017-06-03T01:31:59.552Z,931.48
2017-06-03T01:32:19.504Z,931.46
2017-06-03T01:32:39.483Z,931.44
2017-06-03T01:32:59.504Z,931.43
2017-06-03T01:33:20.149Z,931.44
2017-06-03T01:33:40.107Z,931.44
2017-06-03T01:33:59.555Z,931.44
2017-06-03T01:34:18.959Z,931.44
2017-06-03T01:34:38.936Z,931.47
2017-06-03T01:34:58.882Z,931.47
2017-06-03T01:35:18.854Z,931.44
2017-06-03T01:35:38.800Z,931.4
2017-06-03T01:35:58.773Z,931.45
2017-06-03T01:36:18.800Z,931.43
2017-06-03T01:36:38.821Z,931.39
2017-06-03T01:36:58.797Z,931.42
2017-06-03T01:37:18.210Z,931.41
2017-06-03T01:37:38.171Z,931.4
2017-06-03T01:37:58.143Z,931.44
2017-06-03T01:38:18.103Z,931.44
2017-06-03T01:38:37.488Z,931.43
2017-06-03T01:38:57.438Z,931.41
2017-06-03T01:39:16.880Z,931.41
2017-06-03T01:39:36.842Z,931.42
2017-06-03T01:39:56.258Z,931.41
2017-06-03T01:40:16.240Z,931.37
2017-06-03T01:40:35.712Z,931.35
2017-06-03T01:40:55.656Z,931.41
2017-06-03T01:41:15.083Z,931.41
2017-06-03T01:41:34.491Z,931.37
2017-06-03T01:42:08.304Z,931.37
2017-06-03T01:42:28.297Z,931.33
2017-06-03T01:42:47.733Z,931.36
2017-06-03T01:43:07.709Z,931.36
2017-06-03T01:43:27.652Z,931.35
2017-06-03T01:43:47.042Z,931.36
2017-06-03T01:44:07.014Z,931.35
2017-06-03T01:44:27.017Z,931.38
2017-06-03T01:44:46.979Z,931.37
2017-06-03T01:45:06.349Z,931.35
2017-06-03T01:45:26.323Z,931.36
2017-06-03T01:45:45.714Z,931.36
2017-06-03T01:46:05.676Z,931.38
2017-06-03T01:46:25.075Z,931.36
2017-06-03T01:46:45.045Z,931.37
2017-06-03T01:47:05.029Z,931.38
2017-06-03T01:47:24.990Z,931.33
2017-06-03T01:47:44.955Z,931.36
2017-06-03T01:48:04.968Z,931.36
2017-06-03T01:48:24.437Z,931.4
2017-06-03T01:48:44.414Z,931.38
2017-06-03T01:49:04.386Z,931.37
2017-06-03T01:49:24.336Z,931.4
2017-06-03T01:49:44.298Z,931.35
2017-06-03T01:50:03.744Z,931.38
2017-06-03T01:50:23.729Z,931.39
2017-06-03T01:50:43.702Z,931.36
2017-06-03T01:51:03.129Z,931.37
2017-06-03T01:51:23.115Z,931.38
2017-06-03T01:51:42.524Z,931.36
2017-06-03T01:52:02.485Z,931.34
2017-06-03T01:52:22.464Z,931.36
2017-06-03T01:52:42.436Z,931.36
2017-06-03T01:53:02.387Z,931.37
2017-06-03T01:53:21.803Z,931.38
2017-06-03T01:53:41.940Z,931.39
2017-06-03T01:54:02.850Z,931.38
2017-06-03T01:54:22.846Z,931.4
2017-06-03T01:54:42.793Z,931.38
2017-06-03T01:55:02.785Z,931.35
2017-06-03T01:55:22.228Z,931.34
2017-06-03T01:55:42.226Z,931.36
2017-06-03T01:56:02.286Z,931.37
2017-06-03T01:56:22.419Z,931.38
2017-06-03T01:56:41.840Z,931.32
2017-06-03T01:57:01.811Z,931.28
2017-06-03T01:57:21.915Z,931.33
2017-06-03T01:57:41.320Z,931.33
2017-06-03T01:58:01.253Z,931.31
2017-06-03T01:58:20.682Z,931.33
2017-06-03T01:58:40.661Z,931.33
2017-06-03T01:59:00.642Z,931.32
2017-06-03T01:59:20.067Z,931.3
2017-06-03T01:59:39.495Z,931.33
2017-06-03T01:59:59.463Z,931.29
2017-06-03T02:00:18.287Z,931.31
2017-06-03T02:00:37.707Z,931.28
2017-06-03T02:00:57.674Z,931.35
2017-06-03T02:01:17.644Z,931.28
2017-06-03T02:01:37.607Z,931.29
2017-06-03T02:01:57.588Z,931.28
2017-06-03T02:02:17.541Z,931.28
2017-06-03T02:02:37.506Z,931.25
2017-06-03T02:02:57.091Z,931.28
2017-06-03T02:03:17.243Z,931.24
2017-06-03T02:03:37.197Z,931.21
2017-06-03T02:03:57.149Z,931.21
2017-06-03T02:04:15.976Z,931.25
2017-06-03T02:04:35.962Z,931.24
2017-06-03T02:04:55.972Z,931.22
2017-06-03T02:05:15.346Z,931.23
2017-06-03T02:05:35.314Z,931.23
2017-06-03T02:05:55.250Z,931.23
2017-06-03T02:06:15.246Z,931.21
2017-06-03T02:06:35.209Z,931.2
2017-06-03T02:06:55.454Z,931.21
2017-06-03T02:07:15.435Z,931.21
2017-06-03T02:07:34.832Z,931.25
2017-06-03T02:07:54.810Z,931.2
2017-06-03T02:08:14.229Z,931.18
2017-06-03T02:08:34.199Z,931.22
2017-06-03T02:08:53.606Z,931.19
2017-06-03T02:09:13.602Z,931.17
2017-06-03T02:09:33.567Z,931.19
2017-06-03T02:09:52.978Z,931.13
2017-06-03T02:10:12.941Z,931.21
2017-06-03T02:10:32.369Z,931.15
2017-06-03T02:10:52.351Z,931.18
2017-06-03T02:11:11.761Z,931.15
2017-06-03T02:11:31.740Z,931.15
2017-06-03T02:11:51.156Z,931.14
2017-06-03T02:12:11.134Z,931.18
2017-06-03T02:12:31.107Z,931.18
2017-06-03T02:12:51.069Z,931.12
2017-06-03T02:13:11.012Z,931.17
2017-06-03T02:13:29.837Z,931.15
2017-06-03T02:13:49.240Z,931.12
2017-06-03T02:14:08.675Z,931.12
2017-06-03T02:14:26.968Z,931.11
2017-06-03T02:14:46.933Z,931.1
2017-06-03T02:15:06.897Z,931.1
2017-06-03T02:15:26.878Z,931.08
2017-06-03T02:15:46.876Z,931.1
2017-06-03T02:16:06.838Z,931.04
2017-06-03T02:16:26.843Z,931.06
2017-06-03T02:16:46.250Z,931.09
2017-06-03T02:17:06.237Z,931.08
2017-06-03T02:17:26.215Z,931.05
2017-06-03T02:17:45.605Z,931.06
2017-06-03T02:18:05.574Z,931.05
2017-06-03T02:18:25.528Z,930.99
2017-06-03T02:18:45.493Z,931.01
2017-06-03T02:19:04.894Z,931.06
2017-06-03T02:19:24.284Z,931.04
2017-06-03T02:19:43.699Z,931.01
2017-06-03T02:20:03.702Z,931.09
2017-06-03T02:20:23.127Z,931.09
2017-06-03T02:20:43.087Z,931.09
2017-06-03T02:21:03.019Z,931.1
2017-06-03T02:21:22.436Z,931.1
2017-06-03T02:21:41.845Z,931.09
2017-06-03T02:22:01.831Z,931.08
2017-06-03T02:22:21.292Z,931.03
2017-06-03T02:22:41.240Z,931.08
2017-06-03T02:23:01.261Z,931.05
2017-06-03T02:23:20.703Z,931.11
2017-06-03T02:23:40.651Z,931.1
2017-06-03T02:24:00.643Z,931.07
2017-06-03T02:24:20.653Z,931.04
2017-06-03T02:24:40.613Z,931.1
2017-06-03T02:25:00.056Z,931.12
2017-06-03T02:25:19.639Z,931.09
2017-06-03T02:25:39.614Z,931.1
2017-06-03T02:25:59.017Z,931.09
2017-06-03T02:26:18.409Z,931.09
2017-06-03T02:26:38.355Z,931.07
2017-06-03T02:26:58.392Z,931.12
2017-06-03T02:27:18.356Z,931.12
2017-06-03T02:27:38.343Z,931.11
2017-06-03T02:27:57.728Z,931.11
2017-06-03T02:28:17.746Z,931.1
2017-06-03T02:28:37.744Z,931.04
2017-06-03T02:28:56.595Z,931.07
2017-06-03T02:29:16.572Z,931.07
2017-06-03T02:29:36.005Z,931.06
2017-06-03T02:29:56.124Z,931.03
2017-06-03T02:30:16.176Z,931.05
2017-06-03T02:30:36.185Z,931.04
2017-06-03T02:30:56.194Z,931.07
2017-06-03T02:31:16.173Z,931.04
2017-06-03T02:31:36.179Z,931.08
2017-06-03T02:31:56.189Z,931.04
2017-06-03T02:32:16.288Z,931.07
2017-06-03T02:32:35.099Z,931.02
2017-06-03T02:32:54.552Z,931.02
2017-06-03T02:33:14.053Z,931.02
2017-06-03T02:33:34.087Z,930.99
2017-06-03T02:33:54.130Z,931.04
2017-06-03T02:34:14.084Z,931.03
2017-06-03T02:34:34.092Z,931.05
2017-06-03T02:34:54.072Z,931.03
2017-06-03T02:35:14.053Z,931.02
2017-06-03T02:35:34.172Z,931.06
2017-06-03T02:35:54.178Z,931.02
2017-06-03T02:36:14.140Z,931.02
2017-06-03T02:36:34.119Z,931
2017-06-03T02:36:54.095Z,931.04
2017-06-03T02:37:14.088Z,931.05
2017-06-03T02:37:34.086Z,931.02
2017-06-03T02:37:54.075Z,931.05
2017-06-03T02:38:14.038Z,931.03
2017-06-03T02:38:34.051Z,931.03
2017-06-03T02:38:54.034Z,931.03
2017-06-03T02:39:13.420Z,931.03
2017-06-03T02:39:32.822Z,931.03
2017-06-03T02:39:52.210Z,931.04
2017-06-03T02:40:11.621Z,931.03
2017-06-03T02:40:31.594Z,930.98
2017-06-03T02:40:51.522Z,931.02
2017-06-03T02:41:11.503Z,931.02
2017-06-03T02:41:31.515Z,931.04
2017-06-03T02:41:51.780Z,931.05
2017-06-03T02:42:11.787Z,931.01
2017-06-03T02:42:31.764Z,931.04
2017-06-03T02:42:51.755Z,931.04
2017-06-03T02:43:11.710Z,931.07
2017-06-03T02:43:31.662Z,931.08
2017-06-03T02:43:51.610Z,931.03
2017-06-03T02:44:11.585Z,931.05
2017-06-03T02:44:31.545Z,931.05
2017-06-03T02:44:51.044Z,931.05
2017-06-03T02:45:11.010Z,931.04
2017-06-03T02:45:30.421Z,931.03
2017-06-03T02:45:50.400Z,931.01
2017-06-03T02:46:10.381Z,931.05
2017-06-03T02:46:29.847Z,931.04
2017-06-03T02:46:49.257Z,931.03
2017-06-03T02:47:09.215Z,931.01
2017-06-03T02:47:29.163Z,931.05
2017-06-03T02:47:49.249Z,931.05
2017-06-03T02:48:09.317Z,931
2017-06-03T02:48:29.271Z,931.03
2017-06-03T02:48:49.224Z,931.04
2017-06-03T02:49:09.208Z,931.03
2017-06-03T02:49:28.670Z,931.03
2017-06-03T02:49:48.202Z,931.09
2017-06-03T02:50:07.766Z,931.1
2017-06-03T02:50:26.840Z,931.1
2017-06-03T02:50:46.969Z,931.1
2017-06-03T02:51:06.972Z,931.07
2017-06-03T02:51:26.500Z,931.12
2017-06-03T02:51:46.735Z,931.1
2017-06-03T02:52:06.208Z,931.08
2017-06-03T02:52:26.189Z,931.1
2017-06-03T02:52:46.163Z,931.1
2017-06-03T02:53:05.605Z,931.1
2017-06-03T02:53:25.605Z,931.08
2017-06-03T02:53:45.660Z,931.11
2017-06-03T02:54:05.620Z,931.12
2017-06-03T02:54:24.488Z,931.1
2017-06-03T02:54:44.472Z,931.12
2017-06-03T02:55:04.078Z,931.1
2017-06-03T02:55:24.087Z,931.11
2017-06-03T02:55:44.066Z,931.11
2017-06-03T02:56:02.908Z,931.08
2017-06-03T02:56:22.409Z,931.11
2017-06-03T02:56:41.978Z,931.11
2017-06-03T02:57:02.261Z,931.09
2017-06-03T02:57:22.377Z,931.07
2017-06-03T02:57:41.810Z,931.1
2017-06-03T02:58:01.779Z,931.12
2017-06-03T02:58:20.638Z,931.08
2017-06-03T02:58:40.590Z,931.08
2017-06-03T02:59:00.577Z,931.12
2017-06-03T02:59:21.008Z,931.12
2017-06-03T02:59:41.052Z,931.13
2017-06-03T03:00:01.076Z,931.12
2017-06-03T03:00:21.086Z,931.13
2017-06-03T03:00:41.071Z,931.14
2017-06-03T03:01:01.084Z,931.12
2017-06-03T03:01:21.090Z,931.14
2017-06-03T03:01:40.987Z,931.16
2017-06-03T03:01:59.831Z,931.13
2017-06-03T03:02:19.271Z,931.15
2017-06-03T03:02:39.221Z,931.16
2017-06-03T03:02:59.221Z,931.17
2017-06-03T03:03:19.202Z,931.14
2017-06-03T03:03:38.042Z,931.15
2017-06-03T03:03:58.085Z,931.18
2017-06-03T03:04:17.480Z,931.16
2017-06-03T03:04:37.452Z,931.2
2017-06-03T03:04:56.858Z,931.19
2017-06-03T03:05:16.838Z,931.21
2017-06-03T03:05:36.800Z,931.14
2017-06-03T03:05:56.753Z,931.18
2017-06-03T03:06:16.134Z,931.15
2017-06-03T03:06:36.154Z,931.14
2017-06-03T03:06:56.108Z,931.16
2017-06-03T03:07:16.095Z,931.15
2017-06-03T03:07:36.058Z,931.18
2017-06-03T03:07:56.000Z,931.15
2017-06-03T03:08:15.398Z,931.15
2017-06-03T03:08:34.820Z,931.12
2017-06-03T03:08:54.248Z,931.12
2017-06-03T03:09:13.104Z,931.12
2017-06-03T03:09:33.063Z,931.12
2017-06-03T03:09:53.047Z,931.11
2017-06-03T03:10:13.050Z,931.14
2017-06-03T03:10:33.040Z,931.12
2017-06-03T03:10:52.440Z,931.13
2017-06-03T03:11:12.475Z,931.13
2017-06-03T03:11:31.927Z,931.13
2017-06-03T03:11:51.937Z,931.12
2017-06-03T03:12:11.930Z,931.11
2017-06-03T03:12:31.894Z,931.12
2017-06-03T03:12:51.861Z,931.09
2017-06-03T03:13:11.250Z,931.13
2017-06-03T03:13:30.109Z,931.14
2017-06-03T03:13:50.100Z,931.1
2017-06-03T03:14:09.550Z,931.11
2017-06-03T03:14:29.526Z,931.11
2017-06-03T03:14:48.411Z,931.11
2017-06-03T03:15:08.378Z,931.09
2017-06-03T03:15:28.357Z,931.1
2017-06-03T03:15:48.332Z,931.07
2017-06-03T03:16:08.319Z,931.08
2017-06-03T03:16:27.801Z,931.06
2017-06-03T03:16:47.771Z,931.07
2017-06-03T03:17:07.766Z,931.07
2017-06-03T03:17:27.719Z,931.11
2017-06-03T03:17:47.936Z,931.08
2017-06-03T03:18:07.622Z,931.06
2017-06-03T03:18:27.578Z,931.04
2017-06-03T03:18:46.976Z,931.05
2017-06-03T03:19:05.843Z,931.08
2017-06-03T03:19:25.264Z,931.05
2017-06-03T03:19:44.683Z,931.01
2017-06-03T03:20:04.635Z,931.03
2017-06-03T03:20:24.049Z,931.01
2017-06-03T03:20:44.011Z,931.02
2017-06-03T03:21:03.431Z,931.04
2017-06-03T03:21:23.363Z,931.04
2017-06-03T03:21:43.336Z,931.03
2017-06-03T03:22:03.300Z,931
2017-06-03T03:22:23.272Z,930.97
2017-06-03T03:22:43.236Z,930.97
2017-06-03T03:23:03.193Z,930.95
2017-06-03T03:23:23.168Z,930.97
2017-06-03T03:23:42.005Z,930.97
2017-06-03T03:24:01.971Z,930.96
2017-06-03T03:24:21.971Z,930.98
2017-06-03T03:24:41.926Z,930.97
2017-06-03T03:25:01.903Z,930.96
2017-06-03T03:25:21.308Z,930.93
2017-06-03T03:25:41.287Z,930.95
2017-06-03T03:26:01.258Z,930.93
2017-06-03T03:26:21.268Z,930.92
2017-06-03T03:26:41.222Z,930.95
2017-06-03T03:27:01.183Z,930.99
2017-06-03T03:27:21.141Z,930.92
2017-06-03T03:27:40.527Z,930.91
2017-06-03T03:28:00.467Z,930.91
2017-06-03T03:28:20.432Z,930.91
2017-06-03T03:28:40.414Z,930.91
2017-06-03T03:29:00.399Z,930.91
2017-06-03T03:29:20.326Z,930.89
2017-06-03T03:29:39.748Z,930.9
2017-06-03T03:29:59.708Z,930.93
2017-06-03T03:30:19.070Z,930.98
2017-06-03T03:30:38.484Z,930.94
2017-06-03T03:30:58.418Z,930.96
2017-06-03T03:31:17.800Z,930.99
2017-06-03T03:31:37.724Z,930.95
2017-06-03T03:31:57.669Z,930.97
2017-06-03T03:32:17.602Z,930.89
2017-06-03T03:32:36.449Z,930.9
2017-06-03T03:32:56.415Z,930.94
2017-06-03T03:33:16.360Z,930.96
2017-06-03T03:33:36.328Z,930.95
2017-06-03T03:33:56.304Z,930.91
2017-06-03T03:34:16.287Z,930.92
2017-06-03T03:34:35.705Z,930.91
2017-06-03T03:34:55.119Z,930.95
2017-06-03T03:35:14.531Z,930.92
2017-06-03T03:35:33.951Z,930.9
2017-06-03T03:35:53.886Z,930.95
2017-06-03T03:36:13.892Z,930.92
2017-06-03T03:36:33.849Z,930.93
2017-06-03T03:36:53.276Z,930.95
2017-06-03T03:37:13.242Z,930.94
2017-06-03T03:37:33.224Z,930.92
2017-06-03T03:37:53.207Z,930.95
2017-06-03T03:38:13.157Z,930.92
2017-06-03T03:38:32.570Z,930.92
2017-06-03T03:38:51.998Z,930.92
2017-06-03T03:39:12.018Z,930.88
2017-06-03T03:39:32.001Z,930.88
2017-06-03T03:39:51.961Z,930.93
2017-06-03T03:40:11.937Z,930.9
2017-06-03T03:40:31.345Z,930.89
2017-06-03T03:40:50.737Z,930.91
2017-06-03T03:41:10.685Z,930.92
2017-06-03T03:41:30.067Z,930.9
2017-06-03T03:41:50.029Z,930.93
2017-06-03T03:42:09.467Z,930.88
2017-06-03T03:42:29.431Z,930.85
2017-06-03T03:42:49.436Z,930.89
2017-06-03T03:43:09.393Z,930.89
2017-06-03T03:43:28.792Z,930.89
2017-06-03T03:43:48.774Z,930.88
2017-06-03T03:44:08.784Z,930.9
2017-06-03T03:44:28.759Z,930.9
2017-06-03T03:44:48.721Z,930.87
2017-06-03T03:45:08.680Z,930.95
2017-06-03T03:45:28.647Z,930.88
2017-06-03T03:45:48.611Z,930.95
2017-06-03T03:46:08.575Z,930.91
2017-06-03T03:46:28.510Z,930.93
2017-06-03T03:46:48.465Z,930.95
2017-06-03T03:47:08.428Z,930.92
2017-06-03T03:47:28.364Z,930.9
2017-06-03T03:47:48.348Z,930.95
2017-06-03T03:48:08.306Z,930.97
2017-06-03T03:48:28.261Z,930.92
2017-06-03T03:48:47.104Z,930.9
2017-06-03T03:49:06.583Z,930.92
2017-06-03T03:49:26.571Z,930.88
2017-06-03T03:49:46.548Z,930.9
2017-06-03T03:50:06.492Z,930.94
2017-06-03T03:50:25.893Z,930.87
2017-06-03T03:50:45.318Z,930.87
2017-06-03T03:51:05.324Z,930.91
2017-06-03T03:51:25.280Z,930.92
2017-06-03T03:51:45.373Z,930.9
2017-06-03T03:52:04.781Z,930.89
2017-06-03T03:52:24.224Z,930.89
2017-06-03T03:52:44.195Z,930.9
2017-06-03T03:53:04.184Z,930.93
2017-06-03T03:53:23.607Z,930.97
2017-06-03T03:53:42.480Z,930.92
2017-06-03T03:54:02.496Z,930.92
2017-06-03T03:54:21.902Z,930.94
2017-06-03T03:54:41.860Z,930.91
2017-06-03T03:55:01.832Z,930.92
2017-06-03T03:55:21.279Z,930.91
2017-06-03T03:55:41.235Z,930.92
2017-06-03T03:56:01.175Z,930.94
2017-06-03T03:56:21.173Z,930.93
2017-06-03T03:56:41.130Z,930.91
2017-06-03T03:57:00.536Z,930.91
2017-06-03T03:57:20.497Z,930.92
2017-06-03T03:57:39.920Z,930.94
2017-06-03T03:57:59.875Z,930.9
2017-06-03T03:58:19.839Z,930.87
2017-06-03T03:58:39.812Z,930.85
2017-06-03T03:58:59.237Z,930.87
2017-06-03T03:59:19.216Z,930.9
2017-06-03T03:59:38.052Z,930.89
2017-06-03T03:59:58.023Z,930.83
2017-06-03T04:00:17.995Z,930.84
2017-06-03T04:00:38.576Z,930.86
2017-06-03T04:00:58.539Z,930.84
2017-06-03T04:01:17.969Z,930.79
2017-06-03T04:01:37.914Z,930.86
2017-06-03T04:01:57.888Z,930.83
2017-06-03T04:02:17.868Z,930.84
2017-06-03T04:02:37.849Z,930.84
2017-06-03T04:02:57.814Z,930.86
2017-06-03T04:03:17.210Z,930.9
2017-06-03T04:03:36.605Z,930.86
2017-06-03T04:03:56.598Z,930.87
2017-06-03T04:04:16.564Z,930.84
2017-06-03T04:04:36.001Z,930.86
2017-06-03T04:04:55.423Z,930.85
2017-06-03T04:05:15.405Z,930.84
2017-06-03T04:05:34.808Z,930.83
2017-06-03T04:05:54.786Z,930.86
2017-06-03T04:06:14.762Z,930.86
2017-06-03T04:06:34.209Z,930.84
2017-06-03T04:06:54.179Z,930.85
2017-06-03T04:07:14.130Z,930.85
2017-06-03T04:07:33.526Z,930.87
2017-06-03T04:07:52.384Z,930.85
2017-06-03T04:08:11.803Z,930.87
2017-06-03T04:08:31.217Z,930.88